Henrietta, Missouri
Current Conditions -  °F | °C
As of 9:15 PM on Friday 21 Nov 2014 (Local Time) from KGPH Reporting Station
Overcast Overcast  
Wind Chill: 39°   Ceiling: 1800
Heat Index: 43°   Visibility: 10mi
Dew Point: 36°   Wind: 6mph
Humidity: 76%   Direction: 120°ESE
Pressure: 30.07"   Gusts: NA
Location:  39.23°N, 93.94°W
Report Text: KGPH 220315Z AUTO 12005KT 10SM OVC018 06/02 A3007 RMK AO2
Loading
Personal Weather Stations






























Interactive Weather Map New forecast layout! Learn more

10-Day Weather Forecast

Advertisements
Track Severe Weather on mobile